sensor_id;sensor_type;location;lat;lon;timestamp;noise_LAeq;noise_LA_min;noise_LA_max;noise_LA01;noise_LA95
72805;Laerm;60920;48.748;19.142;2023-06-22T00:00:43;36.86;35.25;38.46;;
72805;Laerm;60920;48.748;19.142;2023-06-22T00:03:09;36.84;35.27;38.35;;
72805;Laerm;60920;48.748;19.142;2023-06-22T00:05:35;36.90;35.28;38.72;;
72805;Laerm;60920;48.748;19.142;2023-06-22T00:08:03;36.72;34.98;38.23;;
72805;Laerm;60920;48.748;19.142;2023-06-22T00:10:29;36.82;35.19;38.30;;
72805;Laerm;60920;48.748;19.142;2023-06-22T00:12:55;36.75;35.04;38.44;;
72805;Laerm;60920;48.748;19.142;2023-06-22T00:15:20;36.66;34.97;38.59;;
72805;Laerm;60920;48.748;19.142;2023-06-22T00:17:45;36.67;35.11;38.11;;
72805;Laerm;60920;48.748;19.142;2023-06-22T00:20:11;36.67;35.13;38.42;;
72805;Laerm;60920;48.748;19.142;2023-06-22T00:22:36;36.63;34.53;38.08;;
72805;Laerm;60920;48.748;19.142;2023-06-22T00:25:05;36.54;34.73;38.31;;
72805;Laerm;60920;48.748;19.142;2023-06-22T00:27:30;36.48;34.95;37.87;;
72805;Laerm;60920;48.748;19.142;2023-06-22T00:29:55;36.68;34.88;38.36;;
72805;Laerm;60920;48.748;19.142;2023-06-22T00:32:21;36.94;35.31;38.79;;
72805;Laerm;60920;48.748;19.142;2023-06-22T00:34:46;37.11;35.14;39.01;;
72805;Laerm;60920;48.748;19.142;2023-06-22T00:37:11;37.12;35.51;39.31;;
72805;Laerm;60920;48.748;19.142;2023-06-22T00:39:37;37.03;35.07;38.63;;
72805;Laerm;60920;48.748;19.142;2023-06-22T00:42:02;36.97;35.22;38.77;;
72805;Laerm;60920;48.748;19.142;2023-06-22T00:44:27;37.00;35.26;38.64;;
72805;Laerm;60920;48.748;19.142;2023-06-22T00:46:53;36.92;35.32;38.46;;
72805;Laerm;60920;48.748;19.142;2023-06-22T00:49:18;36.94;34.98;38.53;;
72805;Laerm;60920;48.748;19.142;2023-06-22T00:51:43;36.73;35.13;38.87;;
72805;Laerm;60920;48.748;19.142;2023-06-22T00:54:11;36.71;35.05;38.32;;
72805;Laerm;60920;48.748;19.142;2023-06-22T00:56:39;36.70;35.11;38.36;;
72805;Laerm;60920;48.748;19.142;2023-06-22T00:59:04;36.81;35.11;38.69;;
72805;Laerm;60920;48.748;19.142;2023-06-22T01:01:30;36.73;34.93;38.24;;
72805;Laerm;60920;48.748;19.142;2023-06-22T01:03:55;36.69;34.61;38.30;;
72805;Laerm;60920;48.748;19.142;2023-06-22T01:06:25;36.71;35.17;38.34;;
72805;Laerm;60920;48.748;19.142;2023-06-22T01:08:55;36.57;35.00;38.31;;
72805;Laerm;60920;48.748;19.142;2023-06-22T01:11:26;36.71;35.07;38.35;;
72805;Laerm;60920;48.748;19.142;2023-06-22T01:13:57;36.73;35.07;38.27;;
72805;Laerm;60920;48.748;19.142;2023-06-22T01:16:31;36.68;35.10;38.36;;
72805;Laerm;60920;48.748;19.142;2023-06-22T01:18:58;36.69;35.03;38.38;;
72805;Laerm;60920;48.748;19.142;2023-06-22T01:21:25;36.67;35.26;38.23;;
72805;Laerm;60920;48.748;19.142;2023-06-22T01:26:28;36.74;35.15;38.33;;
72805;Laerm;60920;48.748;19.142;2023-06-22T01:28:59;36.75;35.19;38.36;;
72805;Laerm;60920;48.748;19.142;2023-06-22T01:31:26;36.76;34.79;38.32;;
72805;Laerm;60920;48.748;19.142;2023-06-22T01:33:57;36.69;35.15;38.09;;
72805;Laerm;60920;48.748;19.142;2023-06-22T01:36:23;36.72;35.16;38.22;;
72805;Laerm;60920;48.748;19.142;2023-06-22T01:38:49;36.81;35.07;38.72;;
72805;Laerm;60920;48.748;19.142;2023-06-22T01:41:15;36.64;35.11;38.54;;
72805;Laerm;60920;48.748;19.142;2023-06-22T01:43:41;36.78;35.12;38.72;;
72805;Laerm;60920;48.748;19.142;2023-06-22T01:46:07;36.84;35.21;38.78;;
72805;Laerm;60920;48.748;19.142;2023-06-22T01:48:33;36.81;34.89;38.31;;
72805;Laerm;60920;48.748;19.142;2023-06-22T01:50:58;36.85;35.12;38.43;;
72805;Laerm;60920;48.748;19.142;2023-06-22T01:53:24;36.83;35.20;38.35;;
72805;Laerm;60920;48.748;19.142;2023-06-22T01:55:49;36.84;35.35;38.60;;
72805;Laerm;60920;48.748;19.142;2023-06-22T01:58:15;36.79;35.00;38.43;;
72805;Laerm;60920;48.748;19.142;2023-06-22T02:00:42;36.78;35.26;38.40;;
72805;Laerm;60920;48.748;19.142;2023-06-22T02:03:13;36.72;34.98;38.69;;
72805;Laerm;60920;48.748;19.142;2023-06-22T02:05:46;36.73;35.14;38.43;;
72805;Laerm;60920;48.748;19.142;2023-06-22T02:08:20;36.68;34.94;38.40;;
72805;Laerm;60920;48.748;19.142;2023-06-22T02:10:46;36.58;34.76;38.29;;
72805;Laerm;60920;48.748;19.142;2023-06-22T02:13:12;36.64;35.07;38.12;;
72805;Laerm;60920;48.748;19.142;2023-06-22T02:15:38;36.72;35.23;38.25;;
72805;Laerm;60920;48.748;19.142;2023-06-22T02:18:03;36.94;35.13;38.63;;
72805;Laerm;60920;48.748;19.142;2023-06-22T02:20:28;36.94;35.38;38.76;;
72805;Laerm;60920;48.748;19.142;2023-06-22T02:22:54;37.07;35.24;38.88;;
72805;Laerm;60920;48.748;19.142;2023-06-22T02:25:19;37.06;34.98;38.75;;
72805;Laerm;60920;48.748;19.142;2023-06-22T02:27:45;37.04;35.29;39.64;;
72805;Laerm;60920;48.748;19.142;2023-06-22T02:30:10;37.19;35.55;38.94;;
72805;Laerm;60920;48.748;19.142;2023-06-22T02:32:36;37.26;35.02;39.01;;
72805;Laerm;60920;48.748;19.142;2023-06-22T02:35:01;37.17;35.32;38.82;;
72805;Laerm;60920;48.748;19.142;2023-06-22T02:37:30;37.15;35.49;38.74;;
72805;Laerm;60920;48.748;19.142;2023-06-22T02:39:55;37.17;35.21;39.15;;
72805;Laerm;60920;48.748;19.142;2023-06-22T02:42:21;37.32;35.40;39.03;;
72805;Laerm;60920;48.748;19.142;2023-06-22T02:44:46;37.20;35.55;39.47;;
72805;Laerm;60920;48.748;19.142;2023-06-22T02:47:12;37.10;35.26;38.91;;
72805;Laerm;60920;48.748;19.142;2023-06-22T02:49:37;37.12;35.56;39.88;;
72805;Laerm;60920;48.748;19.142;2023-06-22T02:52:03;37.14;34.98;38.84;;
72805;Laerm;60920;48.748;19.142;2023-06-22T02:54:28;37.09;35.49;38.88;;
72805;Laerm;60920;48.748;19.142;2023-06-22T02:56:53;37.08;35.12;39.93;;
72805;Laerm;60920;48.748;19.142;2023-06-22T02:59:19;36.89;34.95;40.31;;
72805;Laerm;60920;48.748;19.142;2023-06-22T03:01:49;36.90;35.03;38.43;;
72805;Laerm;60920;48.748;19.142;2023-06-22T03:04:15;36.90;35.16;38.41;;
72805;Laerm;60920;48.748;19.142;2023-06-22T03:06:40;36.91;35.21;38.81;;
72805;Laerm;60920;48.748;19.142;2023-06-22T03:09:06;36.83;35.17;42.62;;
72805;Laerm;60920;48.748;19.142;2023-06-22T03:11:32;36.81;35.12;38.18;;
72805;Laerm;60920;48.748;19.142;2023-06-22T03:13:57;36.75;35.05;38.18;;
72805;Laerm;60920;48.748;19.142;2023-06-22T03:16:23;36.73;34.95;38.39;;
72805;Laerm;60920;48.748;19.142;2023-06-22T03:18:48;36.62;35.02;38.37;;
72805;Laerm;60920;48.748;19.142;2023-06-22T03:21:13;36.57;34.93;38.15;;
72805;Laerm;60920;48.748;19.142;2023-06-22T03:23:40;36.57;35.00;38.19;;
72805;Laerm;60920;48.748;19.142;2023-06-22T03:26:06;36.57;34.94;38.20;;
72805;Laerm;60920;48.748;19.142;2023-06-22T03:28:31;36.62;35.05;41.26;;
72805;Laerm;60920;48.748;19.142;2023-06-22T03:30:57;36.87;35.33;41.31;;
72805;Laerm;60920;48.748;19.142;2023-06-22T03:33:22;36.90;35.16;38.51;;
72805;Laerm;60920;48.748;19.142;2023-06-22T03:35:48;36.94;35.15;38.48;;
72805;Laerm;60920;48.748;19.142;2023-06-22T03:38:14;36.99;35.40;38.82;;
72805;Laerm;60920;48.748;19.142;2023-06-22T03:40:39;37.08;34.96;38.74;;
72805;Laerm;60920;48.748;19.142;2023-06-22T03:43:04;37.22;35.37;39.10;;
72805;Laerm;60920;48.748;19.142;2023-06-22T03:45:30;37.16;35.35;38.77;;
72805;Laerm;60920;48.748;19.142;2023-06-22T03:47:55;37.27;35.51;39.06;;
72805;Laerm;60920;48.748;19.142;2023-06-22T03:50:20;37.30;35.47;38.84;;
72805;Laerm;60920;48.748;19.142;2023-06-22T03:52:46;37.49;35.94;39.24;;
72805;Laerm;60920;48.748;19.142;2023-06-22T03:55:12;37.74;35.93;41.10;;
72805;Laerm;60920;48.748;19.142;2023-06-22T03:57:37;37.86;35.99;39.63;;
72805;Laerm;60920;48.748;19.142;2023-06-22T04:00:02;37.90;36.21;39.82;;
72805;Laerm;60920;48.748;19.142;2023-06-22T04:02:31;37.85;35.91;41.10;;
72805;Laerm;60920;48.748;19.142;2023-06-22T04:04:56;37.97;36.15;39.61;;
72805;Laerm;60920;48.748;19.142;2023-06-22T04:07:22;37.89;36.17;40.15;;
72805;Laerm;60920;48.748;19.142;2023-06-22T04:09:47;37.83;36.08;39.53;;
72805;Laerm;60920;48.748;19.142;2023-06-22T04:12:13;37.86;36.10;42.49;;
72805;Laerm;60920;48.748;19.142;2023-06-22T04:14:38;37.96;36.18;41.92;;
72805;Laerm;60920;48.748;19.142;2023-06-22T04:17:03;37.84;36.13;39.97;;
72805;Laerm;60920;48.748;19.142;2023-06-22T04:19:29;37.78;35.99;41.68;;
72805;Laerm;60920;48.748;19.142;2023-06-22T04:21:54;37.80;35.95;40.82;;
72805;Laerm;60920;48.748;19.142;2023-06-22T04:24:20;37.61;35.77;42.12;;
72805;Laerm;60920;48.748;19.142;2023-06-22T04:26:45;37.64;35.75;40.97;;
72805;Laerm;60920;48.748;19.142;2023-06-22T04:29:12;37.53;35.35;41.40;;
72805;Laerm;60920;48.748;19.142;2023-06-22T04:31:38;37.62;35.62;42.66;;
72805;Laerm;60920;48.748;19.142;2023-06-22T04:34:04;37.89;35.86;42.34;;
72805;Laerm;60920;48.748;19.142;2023-06-22T04:36:35;37.97;36.11;43.50;;
72805;Laerm;60920;48.748;19.142;2023-06-22T04:39:08;37.83;35.91;44.25;;
72805;Laerm;60920;48.748;19.142;2023-06-22T04:41:35;37.83;36.07;39.67;;
72805;Laerm;60920;48.748;19.142;2023-06-22T04:44:07;37.69;35.64;39.48;;
72805;Laerm;60920;48.748;19.142;2023-06-22T04:46:32;37.66;35.68;39.44;;
72805;Laerm;60920;48.748;19.142;2023-06-22T04:48:59;37.43;35.81;42.59;;
72805;Laerm;60920;48.748;19.142;2023-06-22T04:51:24;37.47;35.84;39.24;;
72805;Laerm;60920;48.748;19.142;2023-06-22T04:53:55;37.52;35.94;40.54;;
72805;Laerm;60920;48.748;19.142;2023-06-22T04:56:25;37.55;35.87;47.77;;
72805;Laerm;60920;48.748;19.142;2023-06-22T04:58:53;37.66;35.95;39.26;;
72805;Laerm;60920;48.748;19.142;2023-06-22T05:01:22;37.58;35.97;39.53;;
72805;Laerm;60920;48.748;19.142;2023-06-22T05:03:47;37.60;35.63;39.07;;
72805;Laerm;60920;48.748;19.142;2023-06-22T05:06:13;37.51;35.77;53.32;;
72805;Laerm;60920;48.748;19.142;2023-06-22T05:08:39;37.52;35.68;39.37;;
72805;Laerm;60920;48.748;19.142;2023-06-22T05:11:04;37.77;35.85;49.94;;
72805;Laerm;60920;48.748;19.142;2023-06-22T05:13:30;37.91;35.95;40.39;;
72805;Laerm;60920;48.748;19.142;2023-06-22T05:15:55;37.87;35.86;43.14;;
72805;Laerm;60920;48.748;19.142;2023-06-22T05:18:27;37.91;36.04;42.66;;
72805;Laerm;60920;48.748;19.142;2023-06-22T05:20:52;38.03;36.33;43.93;;
72805;Laerm;60920;48.748;19.142;2023-06-22T05:23:18;46.35;36.38;81.82;;
72805;Laerm;60920;48.748;19.142;2023-06-22T05:25:44;38.11;36.25;44.88;;
72805;Laerm;60920;48.748;19.142;2023-06-22T05:28:09;38.23;36.23;56.46;;
72805;Laerm;60920;48.748;19.142;2023-06-22T05:30:36;38.13;36.48;40.40;;
72805;Laerm;60920;48.748;19.142;2023-06-22T05:33:02;37.95;36.12;40.70;;
72805;Laerm;60920;48.748;19.142;2023-06-22T05:35:27;37.90;36.26;39.98;;
72805;Laerm;60920;48.748;19.142;2023-06-22T05:37:52;38.19;36.20;42.53;;
72805;Laerm;60920;48.748;19.142;2023-06-22T05:40:17;40.25;36.80;52.93;;
72805;Laerm;60920;48.748;19.142;2023-06-22T05:42:43;38.62;36.52;40.53;;
72805;Laerm;60920;48.748;19.142;2023-06-22T05:45:08;38.31;36.72;39.97;;
72805;Laerm;60920;48.748;19.142;2023-06-22T05:47:34;38.21;36.02;48.73;;
72805;Laerm;60920;48.748;19.142;2023-06-22T05:49:59;37.49;35.60;42.61;;
72805;Laerm;60920;48.748;19.142;2023-06-22T05:52:25;41.56;35.95;58.58;;
72805;Laerm;60920;48.748;19.142;2023-06-22T05:54:50;46.52;37.31;63.61;;
72805;Laerm;60920;48.748;19.142;2023-06-22T05:57:16;47.64;37.66;58.11;;
72805;Laerm;60920;48.748;19.142;2023-06-22T05:59:41;44.54;35.91;59.29;;
72805;Laerm;60920;48.748;19.142;2023-06-22T06:02:06;39.73;36.20;53.69;;
72805;Laerm;60920;48.748;19.142;2023-06-22T06:04:31;38.20;36.07;46.58;;
72805;Laerm;60920;48.748;19.142;2023-06-22T06:06:57;37.89;35.92;42.59;;
72805;Laerm;60920;48.748;19.142;2023-06-22T06:09:22;37.89;36.05;48.25;;
72805;Laerm;60920;48.748;19.142;2023-06-22T06:11:47;39.65;36.29;47.69;;
72805;Laerm;60920;48.748;19.142;2023-06-22T06:14:13;37.87;35.74;47.26;;
72805;Laerm;60920;48.748;19.142;2023-06-22T06:16:38;37.59;35.96;44.30;;
72805;Laerm;60920;48.748;19.142;2023-06-22T06:19:03;38.44;35.67;60.00;;
72805;Laerm;60920;48.748;19.142;2023-06-22T06:21:28;43.87;35.64;60.89;;
72805;Laerm;60920;48.748;19.142;2023-06-22T06:23:54;37.25;35.58;40.12;;
72805;Laerm;60920;48.748;19.142;2023-06-22T06:26:19;37.31;35.66;40.89;;
72805;Laerm;60920;48.748;19.142;2023-06-22T06:28:52;37.24;35.76;45.60;;
72805;Laerm;60920;48.748;19.142;2023-06-22T06:31:18;37.36;35.69;39.55;;
72805;Laerm;60920;48.748;19.142;2023-06-22T06:33:43;37.59;35.88;40.09;;
72805;Laerm;60920;48.748;19.142;2023-06-22T06:36:08;37.58;35.92;39.61;;
72805;Laerm;60920;48.748;19.142;2023-06-22T06:38:33;40.04;35.78;51.82;;
72805;Laerm;60920;48.748;19.142;2023-06-22T06:40:59;39.39;35.87;52.70;;
72805;Laerm;60920;48.748;19.142;2023-06-22T06:43:24;41.72;35.69;56.49;;
72805;Laerm;60920;48.748;19.142;2023-06-22T06:45:50;38.15;35.73;52.72;;
72805;Laerm;60920;48.748;19.142;2023-06-22T06:48:15;38.62;35.44;53.24;;
72805;Laerm;60920;48.748;19.142;2023-06-22T06:50:40;37.04;35.13;44.93;;
72805;Laerm;60920;48.748;19.142;2023-06-22T06:53:05;37.07;35.44;39.25;;
72805;Laerm;60920;48.748;19.142;2023-06-22T06:55:31;37.08;35.41;38.46;;
72805;Laerm;60920;48.748;19.142;2023-06-22T06:57:58;37.20;35.72;39.02;;
72805;Laerm;60920;48.748;19.142;2023-06-22T07:00:24;37.18;35.59;39.14;;
72805;Laerm;60920;48.748;19.142;2023-06-22T07:02:51;37.24;35.47;38.72;;
72805;Laerm;60920;48.748;19.142;2023-06-22T07:05:16;37.16;35.42;38.95;;
72805;Laerm;60920;48.748;19.142;2023-06-22T07:07:41;37.10;35.40;38.56;;
72805;Laerm;60920;48.748;19.142;2023-06-22T07:10:07;37.01;35.32;38.79;;
72805;Laerm;60920;48.748;19.142;2023-06-22T07:12:33;37.13;35.67;40.61;;
72805;Laerm;60920;48.748;19.142;2023-06-22T07:15:02;37.19;35.67;39.06;;
72805;Laerm;60920;48.748;19.142;2023-06-22T07:17:28;37.27;35.71;40.16;;
72805;Laerm;60920;48.748;19.142;2023-06-22T07:19:53;37.25;35.60;40.59;;
72805;Laerm;60920;48.748;19.142;2023-06-22T07:22:18;37.27;35.61;38.73;;
72805;Laerm;60920;48.748;19.142;2023-06-22T07:24:44;37.28;35.88;39.11;;
72805;Laerm;60920;48.748;19.142;2023-06-22T07:27:09;37.43;35.82;44.64;;
72805;Laerm;60920;48.748;19.142;2023-06-22T07:29:36;37.33;35.29;40.21;;
72805;Laerm;60920;48.748;19.142;2023-06-22T07:32:01;37.20;35.71;40.29;;
72805;Laerm;60920;48.748;19.142;2023-06-22T07:34:29;37.19;35.39;38.63;;
72805;Laerm;60920;48.748;19.142;2023-06-22T07:36:55;37.20;35.17;39.40;;
72805;Laerm;60920;48.748;19.142;2023-06-22T07:39:20;37.06;35.34;38.67;;
72805;Laerm;60920;48.748;19.142;2023-06-22T07:41:50;37.06;35.36;41.52;;
72805;Laerm;60920;48.748;19.142;2023-06-22T07:44:16;37.16;35.55;40.81;;
72805;Laerm;60920;48.748;19.142;2023-06-22T07:46:41;36.98;35.31;41.49;;
72805;Laerm;60920;48.748;19.142;2023-06-22T07:49:07;37.05;34.97;50.20;;
72805;Laerm;60920;48.748;19.142;2023-06-22T07:51:33;37.04;35.56;38.71;;
72805;Laerm;60920;48.748;19.142;2023-06-22T07:53:58;37.11;35.49;41.85;;
72805;Laerm;60920;48.748;19.142;2023-06-22T07:56:24;36.91;35.36;39.04;;
72805;Laerm;60920;48.748;19.142;2023-06-22T07:58:49;36.92;35.46;40.27;;
72805;Laerm;60920;48.748;19.142;2023-06-22T08:01:14;37.01;35.53;38.90;;
72805;Laerm;60920;48.748;19.142;2023-06-22T08:03:39;37.14;35.55;42.27;;
72805;Laerm;60920;48.748;19.142;2023-06-22T08:06:05;37.15;35.57;43.54;;
72805;Laerm;60920;48.748;19.142;2023-06-22T08:08:31;37.18;35.60;39.01;;
72805;Laerm;60920;48.748;19.142;2023-06-22T08:10:56;37.20;35.51;42.78;;
72805;Laerm;60920;48.748;19.142;2023-06-22T08:13:22;37.25;35.47;38.80;;
72805;Laerm;60920;48.748;19.142;2023-06-22T08:15:47;37.26;35.69;38.88;;
72805;Laerm;60920;48.748;19.142;2023-06-22T08:18:12;37.10;35.67;38.82;;
72805;Laerm;60920;48.748;19.142;2023-06-22T08:20:37;37.19;35.47;41.57;;
72805;Laerm;60920;48.748;19.142;2023-06-22T08:23:03;36.94;35.51;38.45;;
72805;Laerm;60920;48.748;19.142;2023-06-22T08:25:34;36.91;35.28;39.38;;
72805;Laerm;60920;48.748;19.142;2023-06-22T08:28:00;36.99;35.45;39.89;;
72805;Laerm;60920;48.748;19.142;2023-06-22T08:30:25;37.21;35.69;38.60;;
72805;Laerm;60920;48.748;19.142;2023-06-22T08:32:50;37.41;35.78;40.14;;
72805;Laerm;60920;48.748;19.142;2023-06-22T08:35:16;37.33;35.84;39.27;;
72805;Laerm;60920;48.748;19.142;2023-06-22T08:37:41;37.43;35.43;43.85;;
72805;Laerm;60920;48.748;19.142;2023-06-22T08:40:08;37.19;35.63;38.81;;
72805;Laerm;60920;48.748;19.142;2023-06-22T08:42:34;37.33;35.63;39.04;;
72805;Laerm;60920;48.748;19.142;2023-06-22T08:44:59;37.31;35.45;38.72;;
72805;Laerm;60920;48.748;19.142;2023-06-22T08:47:26;37.39;35.67;39.90;;
72805;Laerm;60920;48.748;19.142;2023-06-22T08:49:52;37.26;35.57;39.77;;
72805;Laerm;60920;48.748;19.142;2023-06-22T08:52:17;37.11;35.22;39.31;;
72805;Laerm;60920;48.748;19.142;2023-06-22T08:54:43;37.02;35.17;39.04;;
72805;Laerm;60920;48.748;19.142;2023-06-22T08:57:08;37.14;35.33;39.35;;
72805;Laerm;60920;48.748;19.142;2023-06-22T08:59:34;37.09;35.10;38.59;;
72805;Laerm;60920;48.748;19.142;2023-06-22T09:01:59;37.10;35.58;39.12;;
72805;Laerm;60920;48.748;19.142;2023-06-22T09:04:24;37.23;35.46;38.90;;
72805;Laerm;60920;48.748;19.142;2023-06-22T09:06:50;37.34;35.77;39.21;;
72805;Laerm;60920;48.748;19.142;2023-06-22T09:09:17;37.33;35.64;39.07;;
72805;Laerm;60920;48.748;19.142;2023-06-22T09:11:43;37.26;35.77;39.02;;
72805;Laerm;60920;48.748;19.142;2023-06-22T09:14:09;37.26;35.79;39.18;;
72805;Laerm;60920;48.748;19.142;2023-06-22T09:16:34;37.37;35.75;39.42;;
72805;Laerm;60920;48.748;19.142;2023-06-22T09:19:00;37.27;35.74;41.69;;
72805;Laerm;60920;48.748;19.142;2023-06-22T09:21:25;37.34;35.51;42.39;;
72805;Laerm;60920;48.748;19.142;2023-06-22T09:23:50;37.02;35.46;39.91;;
72805;Laerm;60920;48.748;19.142;2023-06-22T09:26:20;37.08;35.33;39.31;;
72805;Laerm;60920;48.748;19.142;2023-06-22T09:28:45;37.06;35.43;39.75;;
72805;Laerm;60920;48.748;19.142;2023-06-22T09:31:11;36.90;35.12;38.69;;
72805;Laerm;60920;48.748;19.142;2023-06-22T09:33:36;36.76;34.75;42.17;;
72805;Laerm;60920;48.748;19.142;2023-06-22T09:36:05;36.71;35.19;41.95;;
72805;Laerm;60920;48.748;19.142;2023-06-22T09:38:38;36.72;34.93;43.19;;
72805;Laerm;60920;48.748;19.142;2023-06-22T09:41:04;37.15;34.95;43.61;;
72805;Laerm;60920;48.748;19.142;2023-06-22T09:43:30;37.08;35.53;42.47;;
72805;Laerm;60920;48.748;19.142;2023-06-22T09:45:56;36.96;35.32;40.28;;
72805;Laerm;60920;48.748;19.142;2023-06-22T09:48:21;36.70;34.76;43.58;;
72805;Laerm;60920;48.748;19.142;2023-06-22T09:50:47;36.42;34.74;40.25;;
72805;Laerm;60920;48.748;19.142;2023-06-22T09:53:12;36.17;34.63;37.87;;
72805;Laerm;60920;48.748;19.142;2023-06-22T09:55:37;36.52;34.80;40.71;;
72805;Laerm;60920;48.748;19.142;2023-06-22T09:58:02;37.15;35.38;39.83;;
72805;Laerm;60920;48.748;19.142;2023-06-22T10:00:28;36.99;35.47;38.75;;
72805;Laerm;60920;48.748;19.142;2023-06-22T10:02:53;37.31;35.54;41.72;;
72805;Laerm;60920;48.748;19.142;2023-06-22T10:05:20;37.11;35.14;42.00;;
72805;Laerm;60920;48.748;19.142;2023-06-22T10:07:46;37.69;35.98;40.85;;
72805;Laerm;60920;48.748;19.142;2023-06-22T10:10:11;36.81;35.05;40.71;;
72805;Laerm;60920;48.748;19.142;2023-06-22T10:12:40;37.14;35.58;46.09;;
72805;Laerm;60920;48.748;19.142;2023-06-22T10:15:06;37.36;35.65;40.39;;
72805;Laerm;60920;48.748;19.142;2023-06-22T10:17:31;37.05;35.23;41.92;;
72805;Laerm;60920;48.748;19.142;2023-06-22T10:19:57;36.51;34.59;42.71;;
72805;Laerm;60920;48.748;19.142;2023-06-22T10:22:22;37.49;35.75;39.54;;
72805;Laerm;60920;48.748;19.142;2023-06-22T10:24:47;37.07;35.41;42.83;;
72805;Laerm;60920;48.748;19.142;2023-06-22T10:27:12;36.94;35.03;43.37;;
72805;Laerm;60920;48.748;19.142;2023-06-22T10:29:38;36.62;34.64;44.44;;
72805;Laerm;60920;48.748;19.142;2023-06-22T10:32:04;36.56;34.50;44.06;;
72805;Laerm;60920;48.748;19.142;2023-06-22T10:34:29;36.47;34.03;44.15;;
72805;Laerm;60920;48.748;19.142;2023-06-22T10:36:54;36.48;34.07;43.16;;
72805;Laerm;60920;48.748;19.142;2023-06-22T10:39:20;37.11;34.49;48.64;;
72805;Laerm;60920;48.748;19.142;2023-06-22T10:41:45;36.96;35.13;42.99;;
72805;Laerm;60920;48.748;19.142;2023-06-22T10:44:11;36.46;34.61;43.38;;
72805;Laerm;60920;48.748;19.142;2023-06-22T10:46:37;35.97;33.72;43.27;;
72805;Laerm;60920;48.748;19.142;2023-06-22T10:49:02;35.91;33.94;43.62;;
72805;Laerm;60920;48.748;19.142;2023-06-22T10:51:27;36.33;34.42;43.61;;
72805;Laerm;60920;48.748;19.142;2023-06-22T10:53:53;36.33;34.39;44.07;;
72805;Laerm;60920;48.748;19.142;2023-06-22T10:56:18;36.50;34.37;44.14;;
72805;Laerm;60920;48.748;19.142;2023-06-22T10:58:44;35.65;33.93;41.50;;
72805;Laerm;60920;48.748;19.142;2023-06-22T11:01:10;36.15;34.13;44.06;;
72805;Laerm;60920;48.748;19.142;2023-06-22T11:03:35;36.18;34.35;40.23;;
72805;Laerm;60920;48.748;19.142;2023-06-22T11:06:00;35.78;33.06;42.87;;
72805;Laerm;60920;48.748;19.142;2023-06-22T11:08:26;35.45;33.57;38.79;;
72805;Laerm;60920;48.748;19.142;2023-06-22T11:10:51;35.96;33.78;40.33;;
72805;Laerm;60920;48.748;19.142;2023-06-22T11:13:17;35.65;33.81;39.60;;
72805;Laerm;60920;48.748;19.142;2023-06-22T11:15:42;36.44;33.88;46.52;;
72805;Laerm;60920;48.748;19.142;2023-06-22T11:18:08;36.22;33.70;40.49;;
72805;Laerm;60920;48.748;19.142;2023-06-22T11:20:33;35.85;33.16;42.62;;
72805;Laerm;60920;48.748;19.142;2023-06-22T11:23:03;36.10;33.82;39.30;;
72805;Laerm;60920;48.748;19.142;2023-06-22T11:25:29;35.49;33.53;38.33;;
72805;Laerm;60920;48.748;19.142;2023-06-22T11:27:54;35.78;33.66;40.62;;
72805;Laerm;60920;48.748;19.142;2023-06-22T11:30:19;36.20;34.14;40.00;;
72805;Laerm;60920;48.748;19.142;2023-06-22T11:32:45;36.22;34.17;43.46;;
72805;Laerm;60920;48.748;19.142;2023-06-22T11:35:10;35.88;33.12;41.32;;
72805;Laerm;60920;48.748;19.142;2023-06-22T11:37:35;35.63;33.67;41.67;;
72805;Laerm;60920;48.748;19.142;2023-06-22T11:40:00;35.72;33.88;38.47;;
72805;Laerm;60920;48.748;19.142;2023-06-22T11:42:28;35.95;33.89;39.31;;
72805;Laerm;60920;48.748;19.142;2023-06-22T11:44:53;35.33;32.94;52.46;;
72805;Laerm;60920;48.748;19.142;2023-06-22T11:47:18;34.37;32.43;39.67;;
72805;Laerm;60920;48.748;19.142;2023-06-22T11:49:44;35.24;32.83;39.92;;
72805;Laerm;60920;48.748;19.142;2023-06-22T11:52:09;36.15;33.69;50.02;;
72805;Laerm;60920;48.748;19.142;2023-06-22T11:54:34;35.86;33.05;44.90;;
72805;Laerm;60920;48.748;19.142;2023-06-22T11:57:00;36.17;33.64;42.76;;
72805;Laerm;60920;48.748;19.142;2023-06-22T11:59:25;35.61;33.37;41.05;;
72805;Laerm;60920;48.748;19.142;2023-06-22T12:01:50;35.59;32.90;38.56;;
72805;Laerm;60920;48.748;19.142;2023-06-22T12:04:16;35.88;33.34;43.01;;
72805;Laerm;60920;48.748;19.142;2023-06-22T12:06:41;35.52;33.02;43.10;;
72805;Laerm;60920;48.748;19.142;2023-06-22T12:09:08;35.15;32.72;39.96;;
72805;Laerm;60920;48.748;19.142;2023-06-22T12:11:33;35.71;33.11;38.62;;
72805;Laerm;60920;48.748;19.142;2023-06-22T12:13:58;35.68;33.23;40.20;;
72805;Laerm;60920;48.748;19.142;2023-06-22T12:16:27;35.29;32.79;40.12;;
72805;Laerm;60920;48.748;19.142;2023-06-22T12:18:52;36.14;33.46;44.33;;
72805;Laerm;60920;48.748;19.142;2023-06-22T12:21:18;36.07;33.92;38.46;;
72805;Laerm;60920;48.748;19.142;2023-06-22T12:23:43;36.53;34.73;41.19;;
72805;Laerm;60920;48.748;19.142;2023-06-22T12:26:09;36.28;33.54;42.43;;
72805;Laerm;60920;48.748;19.142;2023-06-22T12:28:34;35.08;33.17;38.35;;
72805;Laerm;60920;48.748;19.142;2023-06-22T12:30:59;35.86;33.31;40.67;;
72805;Laerm;60920;48.748;19.142;2023-06-22T12:33:24;35.27;33.17;37.87;;
72805;Laerm;60920;48.748;19.142;2023-06-22T12:35:50;35.02;32.62;38.97;;
72805;Laerm;60920;48.748;19.142;2023-06-22T12:38:15;35.26;32.81;38.97;;
72805;Laerm;60920;48.748;19.142;2023-06-22T12:40:40;35.97;33.81;44.51;;
72805;Laerm;60920;48.748;19.142;2023-06-22T12:43:05;35.37;33.16;38.79;;
72805;Laerm;60920;48.748;19.142;2023-06-22T12:45:32;35.19;32.67;38.40;;
72805;Laerm;60920;48.748;19.142;2023-06-22T12:47:58;35.44;33.08;40.37;;
72805;Laerm;60920;48.748;19.142;2023-06-22T12:50:24;35.02;32.34;38.96;;
72805;Laerm;60920;48.748;19.142;2023-06-22T12:52:50;34.93;32.23;39.90;;
72805;Laerm;60920;48.748;19.142;2023-06-22T12:55:15;36.85;32.26;54.41;;
72805;Laerm;60920;48.748;19.142;2023-06-22T12:57:40;35.24;32.47;40.44;;
72805;Laerm;60920;48.748;19.142;2023-06-22T13:00:06;35.30;32.57;43.40;;
72805;Laerm;60920;48.748;19.142;2023-06-22T13:02:33;34.64;32.41;37.57;;
72805;Laerm;60920;48.748;19.142;2023-06-22T13:04:58;36.22;32.74;48.02;;
72805;Laerm;60920;48.748;19.142;2023-06-22T13:07:23;35.00;32.33;40.56;;
72805;Laerm;60920;48.748;19.142;2023-06-22T13:09:49;34.96;31.83;44.03;;
72805;Laerm;60920;48.748;19.142;2023-06-22T13:12:17;34.83;31.45;47.90;;
72805;Laerm;60920;48.748;19.142;2023-06-22T13:14:43;34.06;31.60;37.78;;
72805;Laerm;60920;48.748;19.142;2023-06-22T13:17:08;33.49;30.50;43.96;;
72805;Laerm;60920;48.748;19.142;2023-06-22T13:19:34;33.32;30.75;36.89;;
72805;Laerm;60920;48.748;19.142;2023-06-22T13:21:59;33.29;30.65;39.48;;
72805;Laerm;60920;48.748;19.142;2023-06-22T13:24:25;33.12;30.27;40.69;;
72805;Laerm;60920;48.748;19.142;2023-06-22T13:26:50;34.02;30.75;39.08;;